createdAt,value
2019-05-23T00:00:19.000Z,1
2019-05-23T00:02:18.469Z,1.1
2019-05-23T00:04:18.154Z,1
2019-05-23T00:06:17.933Z,1.2
2019-05-23T00:08:17.622Z,1.6
2019-05-23T00:10:17.562Z,1
2019-05-23T00:12:19.416Z,0.8
2019-05-23T00:14:18.801Z,1.8
2019-05-23T00:16:18.332Z,0.9
2019-05-23T00:18:21.080Z,1.2
2019-05-23T00:20:17.674Z,1.3
2019-05-23T00:22:19.331Z,1.1
2019-05-23T00:24:18.675Z,1.9
2019-05-23T00:26:18.374Z,1.1
2019-05-23T00:28:18.104Z,1.5
2019-05-23T00:30:17.827Z,1
2019-05-23T00:32:17.553Z,1.2
2019-05-23T00:34:19.323Z,1
2019-05-23T00:36:18.566Z,1.1
2019-05-23T00:38:18.083Z,1
2019-05-23T00:40:17.846Z,1.8
2019-05-23T00:42:17.664Z,0.9
2019-05-23T00:44:19.418Z,1.1
2019-05-23T00:46:18.758Z,1
2019-05-23T00:48:18.267Z,2.1
2019-05-23T00:50:18.049Z,1
2019-05-23T00:52:17.622Z,1.2
2019-05-23T00:54:19.373Z,1.2
2019-05-23T00:56:18.961Z,1.1
2019-05-23T00:58:18.390Z,1.3
2019-05-23T01:00:18.100Z,1.4
2019-05-23T01:02:17.815Z,1.3
2019-05-23T01:04:17.485Z,1.5
2019-05-23T01:06:19.000Z,1.1
2019-05-23T01:08:18.358Z,1.2
2019-05-23T01:10:18.526Z,1.1
2019-05-23T01:12:17.919Z,1
2019-05-23T01:14:17.694Z,0.9
2019-05-23T01:16:19.372Z,1
2019-05-23T01:18:18.842Z,0.9
2019-05-23T01:20:18.274Z,1.2
2019-05-23T01:22:18.105Z,1.4
2019-05-23T01:24:17.745Z,1.3
2019-05-23T01:26:19.411Z,1.2
2019-05-23T01:28:18.851Z,1
2019-05-23T01:30:18.309Z,1.5
2019-05-23T01:32:18.002Z,1
2019-05-23T01:34:17.734Z,1.2
2019-05-23T01:36:17.429Z,1.1
2019-05-23T01:38:19.160Z,1.2
2019-05-23T01:40:18.755Z,1.2
2019-05-23T01:42:18.429Z,1.3
2019-05-23T01:44:18.185Z,1.3
2019-05-23T01:46:17.927Z,0.9
2019-05-23T01:48:17.673Z,0.9
2019-05-23T01:50:19.591Z,1.2
2019-05-23T01:52:19.108Z,1.3
2019-05-23T01:54:18.678Z,1.2
2019-05-23T01:56:18.303Z,1
2019-05-23T01:58:17.965Z,0.9
2019-05-23T02:00:17.769Z,1.1
2019-05-23T02:02:17.519Z,1.1
2019-05-23T02:04:19.252Z,1.2
2019-05-23T02:06:18.537Z,0.8
2019-05-23T02:08:18.248Z,0.9
2019-05-23T02:10:17.993Z,1.7
2019-05-23T02:12:17.644Z,1.4
2019-05-23T02:14:19.404Z,1.2
2019-05-23T02:16:18.606Z,0.8
2019-05-23T02:18:18.268Z,0.7
2019-05-23T02:20:18.203Z,1.3
2019-05-23T02:22:17.846Z,1
2019-05-23T02:24:17.459Z,0.9
2019-05-23T02:26:19.018Z,0.7
2019-05-23T02:28:18.469Z,0.9
2019-05-23T02:30:32.720Z,1.1
2019-05-23T02:32:17.996Z,1.5
2019-05-23T02:34:17.632Z,1.7
2019-05-23T02:36:19.460Z,1
2019-05-23T02:38:18.976Z,1.2
2019-05-23T02:40:18.650Z,1.4
2019-05-23T02:42:18.306Z,1.3
2019-05-23T02:44:17.956Z,1.2
2019-05-23T02:46:17.676Z,0.7
2019-05-23T02:48:19.479Z,1.5
2019-05-23T02:50:18.862Z,1.4
2019-05-23T02:52:18.302Z,1.3
2019-05-23T02:54:18.055Z,0.8
2019-05-23T02:56:17.809Z,1.1
2019-05-23T02:58:17.490Z,0.9
2019-05-23T03:00:19.300Z,1.5
2019-05-23T03:02:18.777Z,1.2
2019-05-23T03:04:18.542Z,1.2
2019-05-23T03:06:18.298Z,1.5
2019-05-23T03:08:17.965Z,1.2
2019-05-23T03:10:17.665Z,1.5
2019-05-23T03:12:19.472Z,1.5
2019-05-23T03:14:18.880Z,1.2
2019-05-23T03:16:18.429Z,1.3
2019-05-23T03:18:18.129Z,1.5
2019-05-23T03:20:17.818Z,2.2
2019-05-23T03:22:17.474Z,1.3
2019-05-23T03:24:19.351Z,1.4
2019-05-23T03:26:18.582Z,1.6
2019-05-23T03:28:18.094Z,1.4
2019-05-23T03:30:17.722Z,1.6
2019-05-23T03:32:17.552Z,1.8
2019-05-23T03:34:19.322Z,1.4
2019-05-23T03:36:18.731Z,1.2
2019-05-23T03:38:18.403Z,1
2019-05-23T03:40:18.009Z,2.1
2019-05-23T03:42:17.673Z,1.4
2019-05-23T03:44:19.364Z,1
2019-05-23T03:46:18.696Z,1.7
2019-05-23T03:48:18.354Z,1.7
2019-05-23T03:50:18.076Z,1
2019-05-23T03:52:17.734Z,1.2
2019-05-23T03:54:19.490Z,1.6
2019-05-23T03:56:18.707Z,1.3
2019-05-23T03:58:18.472Z,1.4
2019-05-23T04:00:18.169Z,1.5
2019-05-23T04:02:17.940Z,1.6
2019-05-23T04:04:17.493Z,2
2019-05-23T04:06:18.933Z,2.1
2019-05-23T04:08:18.376Z,1.5
2019-05-23T04:10:18.153Z,1.7
2019-05-23T04:12:17.760Z,1.5
2019-05-23T04:14:19.426Z,1.7
2019-05-23T04:16:18.745Z,1.6
2019-05-23T04:18:18.376Z,1.7
2019-05-23T04:20:18.034Z,1.7
2019-05-23T04:22:17.658Z,1.5
2019-05-23T04:24:19.441Z,1.3
2019-05-23T04:26:18.750Z,1.7
2019-05-23T04:28:18.551Z,2.1
2019-05-23T04:30:18.248Z,1.9
2019-05-23T04:32:17.926Z,1.2
2019-05-23T04:34:17.608Z,1.3
2019-05-23T04:36:19.452Z,2
2019-05-23T04:38:18.864Z,1.2
2019-05-23T04:40:18.453Z,1.4
2019-05-23T04:42:18.201Z,1.1
2019-05-23T04:44:17.964Z,2
2019-05-23T04:46:17.707Z,1.4
2019-05-23T04:48:19.329Z,1.1
2019-05-23T04:50:18.815Z,1.6
2019-05-23T04:52:18.255Z,1.8
2019-05-23T04:54:17.962Z,1.8
2019-05-23T04:56:17.820Z,1.1
2019-05-23T04:58:17.535Z,1.4
2019-05-23T05:00:19.255Z,1.6
2019-05-23T05:02:25.887Z,1.4
2019-05-23T05:04:18.415Z,1.7
2019-05-23T05:06:18.244Z,1.3
2019-05-23T05:08:17.880Z,1.2
2019-05-23T05:10:17.689Z,1.3
2019-05-23T05:12:19.249Z,1
2019-05-23T05:14:18.702Z,1.5
2019-05-23T05:16:18.361Z,0.9
2019-05-23T05:18:18.011Z,1.6
2019-05-23T05:20:17.761Z,1
2019-05-23T05:22:17.418Z,1.6
2019-05-23T05:24:19.182Z,1
2019-05-23T05:26:18.429Z,1.2
2019-05-23T05:28:18.095Z,1.1
2019-05-23T05:30:17.797Z,1.1
2019-05-23T05:32:17.433Z,1.2
2019-05-23T05:34:19.285Z,1.2
2019-05-23T05:36:18.569Z,1
2019-05-23T05:38:18.233Z,0.7
2019-05-23T05:40:17.920Z,0.8
2019-05-23T05:42:17.628Z,1.1
2019-05-23T05:44:19.399Z,0.8
2019-05-23T05:46:18.712Z,1.3
2019-05-23T05:48:18.285Z,0.7
2019-05-23T05:50:17.929Z,0.7
2019-05-23T05:52:17.561Z,1.5
2019-05-23T05:54:19.388Z,0.9
2019-05-23T05:56:18.632Z,0.7
2019-05-23T05:58:18.307Z,1.4
2019-05-23T06:00:18.040Z,0.7
2019-05-23T06:02:17.724Z,1.1
2019-05-23T06:04:17.421Z,1
2019-05-23T06:06:18.995Z,1.3
2019-05-23T06:08:18.474Z,0.8
2019-05-23T06:10:18.234Z,0.8
2019-05-23T06:12:18.090Z,0.8
2019-05-23T06:14:17.634Z,1
2019-05-23T06:16:19.426Z,0.9
2019-05-23T06:18:18.883Z,0.8
2019-05-23T06:20:18.403Z,1.4
2019-05-23T06:22:18.097Z,0.7
2019-05-23T06:24:17.773Z,0.8
2019-05-23T06:26:17.555Z,1
2019-05-23T06:28:19.287Z,0.7
2019-05-23T06:30:18.688Z,0.6
2019-05-23T06:32:18.339Z,0.5
2019-05-23T06:34:17.951Z,0.9
2019-05-23T06:36:17.762Z,0.6
2019-05-23T06:38:17.495Z,0.8
2019-05-23T06:40:19.017Z,1.2
2019-05-23T06:42:18.597Z,0.9
2019-05-23T06:44:18.250Z,0.7
2019-05-23T06:46:18.200Z,0.7
2019-05-23T06:48:17.714Z,1
2019-05-23T06:50:19.538Z,0.7
2019-05-23T06:52:18.539Z,0.5
2019-05-23T06:54:18.151Z,0.5
2019-05-23T06:56:17.824Z,0.7
2019-05-23T06:58:19.849Z,0.5
2019-05-23T07:00:19.118Z,1.1
2019-05-23T07:02:18.574Z,0.6
2019-05-23T07:04:18.284Z,0.7
2019-05-23T07:06:17.977Z,0.5
2019-05-23T07:08:17.678Z,0.8
2019-05-23T07:10:19.476Z,0.6
2019-05-23T07:12:19.017Z,0.6
2019-05-23T07:14:18.525Z,0.8
2019-05-23T07:16:18.177Z,0.6
2019-05-23T07:18:17.818Z,0.7
2019-05-23T07:20:17.559Z,0.9
2019-05-23T07:22:19.759Z,0.9
2019-05-23T07:24:18.337Z,0.6
2019-05-23T07:26:18.071Z,1
2019-05-23T07:28:17.786Z,1.2
2019-05-23T07:30:19.582Z,0.6
2019-05-23T07:32:18.548Z,0.6
2019-05-23T07:34:18.164Z,0.7
2019-05-23T07:36:17.846Z,1
2019-05-23T07:38:17.500Z,0.7
2019-05-23T07:40:19.060Z,0.6
2019-05-23T07:42:18.446Z,1.1
2019-05-23T07:44:18.073Z,0.8
2019-05-23T07:46:17.832Z,1.2
2019-05-23T07:48:17.483Z,0.6
2019-05-23T07:50:19.151Z,0.7
2019-05-23T07:52:18.608Z,0.6
2019-05-23T07:54:18.354Z,1.1
2019-05-23T07:56:18.136Z,0.9
2019-05-23T07:58:17.712Z,0.7
2019-05-23T08:00:19.567Z,0.6
2019-05-23T08:02:19.060Z,0.8
2019-05-23T08:04:21.611Z,0.8
2019-05-23T08:06:18.304Z,1.1
2019-05-23T08:08:17.945Z,0.9
2019-05-23T08:10:32.433Z,0.6
2019-05-23T08:12:17.481Z,1
2019-05-23T08:14:19.217Z,0.8
2019-05-23T08:16:18.755Z,0.9
2019-05-23T08:18:18.391Z,1
2019-05-23T08:20:18.148Z,1.4
2019-05-23T08:22:17.729Z,1.3
2019-05-23T08:24:19.497Z,0.9
2019-05-23T08:26:18.738Z,0.7
2019-05-23T08:28:18.439Z,1.2
2019-05-23T08:30:18.149Z,0.8
2019-05-23T08:32:17.823Z,0.5
2019-05-23T08:34:17.429Z,0.5
2019-05-23T08:36:18.672Z,0.6
2019-05-23T08:38:18.293Z,1
2019-05-23T08:40:18.025Z,1
2019-05-23T08:42:17.633Z,1.1
2019-05-23T08:44:19.366Z,0.6
2019-05-23T08:46:18.918Z,0.5
2019-05-23T08:48:18.356Z,0.9
2019-05-23T08:50:18.080Z,0.6
2019-05-23T08:52:17.781Z,0.4
2019-05-23T08:54:17.438Z,0.5
2019-05-23T08:56:19.837Z,0.6
2019-05-23T08:58:18.339Z,0.4
2019-05-23T09:00:17.926Z,0.6
2019-05-23T09:02:17.641Z,0.7
2019-05-23T09:04:19.382Z,0.5
2019-05-23T09:06:18.975Z,0.7
2019-05-23T09:08:18.570Z,0.8
2019-05-23T09:10:18.436Z,0.8
2019-05-23T09:12:17.996Z,0.5
2019-05-23T09:14:17.573Z,0.9
2019-05-23T09:16:19.396Z,0.6
2019-05-23T09:18:18.848Z,0.5
2019-05-23T09:20:18.351Z,0.6
2019-05-23T09:22:18.171Z,0.5
2019-05-23T09:24:17.827Z,0.8
2019-05-23T09:26:17.536Z,0.3
2019-05-23T09:28:19.153Z,0.5
2019-05-23T09:30:18.682Z,0.5
2019-05-23T09:32:18.382Z,0.6
2019-05-23T09:34:18.139Z,0.7
2019-05-23T09:36:17.881Z,0.6
2019-05-23T09:38:17.646Z,0.4
2019-05-23T09:40:19.491Z,0.8
2019-05-23T09:42:18.610Z,0.5
2019-05-23T09:44:18.258Z,0.6
2019-05-23T09:46:17.958Z,0.4
2019-05-23T09:48:17.637Z,0.8
2019-05-23T09:50:19.474Z,0.4
2019-05-23T09:52:18.845Z,0.4
2019-05-23T09:54:18.292Z,0.5
2019-05-23T09:56:18.022Z,0.3
2019-05-23T09:58:17.815Z,0.4
2019-05-23T10:00:17.481Z,0.4
2019-05-23T10:02:19.200Z,0.5
2019-05-23T10:04:18.565Z,0.6
2019-05-23T10:06:18.353Z,0.3
2019-05-23T10:08:17.866Z,0.4
2019-05-23T10:10:17.672Z,0.4
2019-05-23T10:12:22.431Z,0.5
2019-05-23T10:14:18.034Z,0.4
2019-05-23T10:16:18.593Z,0.5
2019-05-23T10:18:18.258Z,0.3
2019-05-23T10:20:17.836Z,0.5
2019-05-23T10:22:16.560Z,0.5
2019-05-23T10:24:19.267Z,0.5
2019-05-23T10:26:18.849Z,0.3
2019-05-23T10:28:18.329Z,0.4
2019-05-23T10:30:18.132Z,0.3
2019-05-23T10:32:17.971Z,0.3
2019-05-23T10:34:17.578Z,0.3
2019-05-23T10:36:19.296Z,0.4
2019-05-23T10:38:18.786Z,0.4
2019-05-23T10:40:18.504Z,0.5
2019-05-23T10:42:18.061Z,0.3
2019-05-23T10:44:17.724Z,0.4
2019-05-23T10:46:16.502Z,0.3
2019-05-23T10:48:18.370Z,0.2
2019-05-23T10:50:18.884Z,0.7
2019-05-23T10:52:18.344Z,0.5
2019-05-23T10:54:18.211Z,0.4
2019-05-23T10:56:20.491Z,0.7
2019-05-23T10:58:17.549Z,0.5
2019-05-23T11:00:18.278Z,0.4
2019-05-23T11:02:17.679Z,0.6
2019-05-23T11:04:18.323Z,0.4
2019-05-23T11:06:17.211Z,0.6
2019-05-23T11:08:16.709Z,0.4
2019-05-23T11:10:19.451Z,0.4
2019-05-23T11:12:18.906Z,0.6
2019-05-23T11:14:18.372Z,0.5
2019-05-23T11:16:18.207Z,0.5
2019-05-23T11:18:17.817Z,0.5
2019-05-23T11:20:19.477Z,0.6
2019-05-23T11:22:18.932Z,0.5
2019-05-23T11:24:18.399Z,1
2019-05-23T11:26:18.109Z,0.7
2019-05-23T11:28:17.769Z,0.4
2019-05-23T11:30:19.590Z,0.6
2019-05-23T11:32:19.915Z,0.6
2019-05-23T11:34:18.159Z,0.5
2019-05-23T11:36:33.512Z,0.4
2019-05-23T11:38:17.600Z,0.5
2019-05-23T11:40:18.987Z,0.5
2019-05-23T11:42:18.469Z,0.6
2019-05-23T11:44:18.182Z,0.3
2019-05-23T11:46:17.960Z,0.6
2019-05-23T11:48:17.604Z,0.4
2019-05-23T11:50:19.238Z,0.4
2019-05-23T11:52:18.651Z,0.9
2019-05-23T11:54:17.264Z,1
2019-05-23T11:56:17.032Z,0.4
2019-05-23T11:58:17.775Z,0.4
2019-05-23T12:00:19.576Z,0.4
2019-05-23T12:02:19.126Z,0.3
2019-05-23T12:04:18.620Z,0.7
2019-05-23T12:06:18.314Z,0.5
2019-05-23T12:08:16.920Z,0.5
2019-05-23T12:10:17.734Z,0.6
2019-05-23T12:12:19.520Z,0.6
2019-05-23T12:14:18.962Z,0.4
2019-05-23T12:16:18.566Z,0.5
2019-05-23T12:18:17.252Z,0.3
2019-05-23T12:20:17.038Z,0.6
2019-05-23T12:22:16.778Z,0.8
2019-05-23T12:24:19.472Z,0.5
2019-05-23T12:26:18.958Z,0.6
2019-05-23T12:28:18.445Z,0.5
2019-05-23T12:30:17.134Z,0.5
2019-05-23T12:32:17.815Z,0.7
2019-05-23T12:34:17.463Z,0.8
2019-05-23T12:36:17.961Z,0.6
2019-05-23T12:38:17.468Z,0.6
2019-05-23T12:40:17.278Z,0.6
2019-05-23T12:42:17.006Z,0.6
2019-05-23T12:44:17.612Z,0.5
2019-05-23T12:46:18.513Z,0.6
2019-05-23T12:48:17.555Z,0.5
2019-05-23T12:50:17.026Z,0.9
2019-05-23T12:52:16.759Z,1
2019-05-23T12:54:19.513Z,1.2
2019-05-23T12:56:17.830Z,0.6
2019-05-23T12:58:17.345Z,0.4
2019-05-23T13:00:17.211Z,0.4
2019-05-23T13:02:17.942Z,0.3
2019-05-23T13:04:16.499Z,0.3
2019-05-23T13:06:18.123Z,0.4
2019-05-23T13:08:17.585Z,0.6
2019-05-23T13:10:17.453Z,0.6
2019-05-23T13:12:17.084Z,0.3
2019-05-23T13:14:16.762Z,0.5
2019-05-23T13:16:16.567Z,0.4
2019-05-23T13:18:17.517Z,0.5
2019-05-23T13:20:17.219Z,1.2
2019-05-23T13:22:16.803Z,0.4
2019-05-23T13:24:16.470Z,0.5
2019-05-23T13:26:18.187Z,0.4
2019-05-23T13:28:17.659Z,0.4
2019-05-23T13:30:17.515Z,0.5
2019-05-23T13:32:17.306Z,0.5
2019-05-23T13:34:16.941Z,0.4
2019-05-23T13:36:16.809Z,0.6
2019-05-23T13:38:16.491Z,0.3
2019-05-23T13:40:18.166Z,0.5
2019-05-23T13:42:17.539Z,0.8
2019-05-23T13:44:32.463Z,0.3
2019-05-23T13:46:16.817Z,0.3
2019-05-23T13:48:16.562Z,0.2
2019-05-23T13:50:18.241Z,0.4
2019-05-23T13:52:17.707Z,0.4
2019-05-23T13:54:17.433Z,0.3
2019-05-23T13:56:17.211Z,0.3
2019-05-23T13:58:16.894Z,0.5
2019-05-23T14:00:16.766Z,0.4
2019-05-23T14:02:16.623Z,0.2
2019-05-23T14:04:18.359Z,0.4
2019-05-23T14:06:17.727Z,0.4
2019-05-23T14:08:19.236Z,0.4
2019-05-23T14:10:17.141Z,0.3
2019-05-23T14:12:21.296Z,0.4
2019-05-23T14:14:16.583Z,0.5
2019-05-23T14:16:17.989Z,0.5
2019-05-23T14:18:17.495Z,0.6
2019-05-23T14:20:17.220Z,0.3
2019-05-23T14:22:16.834Z,0.3
2019-05-23T14:24:18.545Z,0.5
2019-05-23T14:26:18.128Z,0.3
2019-05-23T14:28:17.599Z,0.4
2019-05-23T14:30:17.453Z,0.5
2019-05-23T14:32:17.038Z,0.5
2019-05-23T14:34:16.777Z,0.4
2019-05-23T14:36:16.574Z,0.6
2019-05-23T14:38:29.974Z,0.4
2019-05-23T14:40:17.710Z,0.5
2019-05-23T14:42:17.413Z,0.4
2019-05-23T14:44:17.082Z,0.3
2019-05-23T14:46:16.773Z,0.4
2019-05-23T14:48:18.345Z,0.5
2019-05-23T14:50:17.856Z,0.5
2019-05-23T14:52:17.362Z,0.3
2019-05-23T14:54:17.002Z,0.4
2019-05-23T14:56:16.829Z,0.2
2019-05-23T14:58:16.484Z,0.3
2019-05-23T15:00:18.294Z,0.4
2019-05-23T15:02:17.882Z,0.2
2019-05-23T15:04:17.305Z,0.4
2019-05-23T15:06:17.024Z,0.5
2019-05-23T15:08:16.536Z,0.4
2019-05-23T15:10:17.993Z,0.4
2019-05-23T15:12:17.557Z,0.4
2019-05-23T15:14:17.184Z,0.3
2019-05-23T15:16:16.933Z,0.3
2019-05-23T15:18:16.719Z,0.8
2019-05-23T15:20:18.478Z,0.3
2019-05-23T15:22:17.879Z,0.5
2019-05-23T15:24:17.326Z,0.3
2019-05-23T15:26:22.729Z,0.4
2019-05-23T15:28:16.859Z,0.4
2019-05-23T15:30:16.580Z,0.6
2019-05-23T15:32:18.405Z,0.5
2019-05-23T15:34:17.885Z,0.4
2019-05-23T15:36:17.505Z,0.4
2019-05-23T15:38:17.090Z,0.3
2019-05-23T15:40:17.003Z,0.3
2019-05-23T15:42:16.657Z,0.4
2019-05-23T15:44:26.435Z,0.5
2019-05-23T15:46:17.673Z,0.3
2019-05-23T15:48:17.263Z,0.5
2019-05-23T15:50:17.106Z,0.3
2019-05-23T15:52:16.789Z,0.2
2019-05-23T15:54:18.355Z,0.3
2019-05-23T15:56:27.248Z,0.4
2019-05-23T15:58:21.850Z,0.4
2019-05-23T16:00:16.929Z,0.3
2019-05-23T16:02:16.659Z,0.2
2019-05-23T16:04:18.364Z,0.3
2019-05-23T16:06:17.640Z,0.4
2019-05-23T16:08:17.328Z,0.3
2019-05-23T16:10:17.207Z,0.5
2019-05-23T16:12:16.781Z,0.3
2019-05-23T16:14:18.478Z,0.4
2019-05-23T16:16:18.101Z,0.5
2019-05-23T16:18:17.609Z,0.2
2019-05-23T16:20:17.402Z,0.3
2019-05-23T16:22:17.266Z,0.1
2019-05-23T16:24:16.933Z,0.3
2019-05-23T16:26:16.570Z,0.3
2019-05-23T16:28:18.288Z,0.3
2019-05-23T16:30:17.845Z,0.5
2019-05-23T16:32:17.365Z,0.6
2019-05-23T16:34:17.001Z,0.4
2019-05-23T16:36:16.796Z,0.3
2019-05-23T16:38:18.499Z,0.4
2019-05-23T16:40:17.806Z,0.4
2019-05-23T16:42:17.215Z,0.5
2019-05-23T16:44:16.964Z,0.5
2019-05-23T16:46:16.767Z,0.3
2019-05-23T16:48:18.436Z,0.4
2019-05-23T16:50:17.986Z,0.4
2019-05-23T16:52:17.496Z,0.4
2019-05-23T16:54:17.062Z,0.3
2019-05-23T16:56:16.857Z,0.4
2019-05-23T16:58:16.633Z,0.4
2019-05-23T17:00:18.521Z,0.3
2019-05-23T17:02:18.066Z,0.4
2019-05-23T17:04:17.544Z,0.5
2019-05-23T17:06:17.375Z,0.4
2019-05-23T17:08:16.945Z,0.3
2019-05-23T17:10:16.735Z,0.6
2019-05-23T17:12:18.444Z,0.5
2019-05-23T17:14:17.932Z,0.3
2019-05-23T17:16:17.498Z,0.3
2019-05-23T17:18:17.065Z,0.2
2019-05-23T17:20:19.920Z,0.7
2019-05-23T17:22:18.574Z,0.5
2019-05-23T17:24:18.094Z,0.6
2019-05-23T17:26:17.708Z,0.2
2019-05-23T17:28:17.351Z,0.4
2019-05-23T17:30:17.124Z,0.3
2019-05-23T17:32:16.855Z,0.2
2019-05-23T17:34:16.529Z,0.3
2019-05-23T17:36:18.062Z,0.4
2019-05-23T17:38:17.608Z,0.3
2019-05-23T17:40:24.646Z,0.3
2019-05-23T17:42:17.153Z,0.4
2019-05-23T17:44:16.900Z,0.2
2019-05-23T17:46:16.530Z,0.3
2019-05-23T17:48:18.280Z,0.5
2019-05-23T17:50:17.840Z,0.5
2019-05-23T17:52:17.326Z,0.2
2019-05-23T17:54:17.119Z,0.3
2019-05-23T17:56:16.884Z,0.3
2019-05-23T17:58:16.546Z,0.5
2019-05-23T18:00:18.244Z,0.4
2019-05-23T18:02:17.754Z,0.4
2019-05-23T18:04:17.511Z,0.4
2019-05-23T18:06:17.231Z,0.3
2019-05-23T18:08:16.834Z,0.3
2019-05-23T18:10:16.599Z,0.3
2019-05-23T18:12:18.341Z,0.3
2019-05-23T18:14:17.920Z,0.3
2019-05-23T18:16:17.517Z,0.5
2019-05-23T18:18:17.197Z,0.2
2019-05-23T18:20:16.910Z,0.4
2019-05-23T18:22:16.526Z,0.4
2019-05-23T18:24:18.283Z,0.4
2019-05-23T18:26:17.585Z,0.3
2019-05-23T18:28:17.255Z,0.3
2019-05-23T18:30:17.107Z,0.6
2019-05-23T18:32:16.798Z,0.4
2019-05-23T18:34:16.587Z,0.3
2019-05-23T18:36:18.132Z,0.4
2019-05-23T18:38:17.678Z,0.5
2019-05-23T18:40:17.429Z,0.4
2019-05-23T18:42:17.147Z,0.3
2019-05-23T18:44:16.914Z,0.5
2019-05-23T18:46:16.662Z,0.5
2019-05-23T18:48:18.400Z,0.3
2019-05-23T18:50:17.930Z,0.6
2019-05-23T18:52:17.498Z,0.4
2019-05-23T18:54:17.217Z,0.3
2019-05-23T18:56:17.009Z,0.6
2019-05-23T18:58:19.494Z,0.3
2019-05-23T19:00:18.714Z,0.2
2019-05-23T19:02:17.340Z,0.6
2019-05-23T19:04:16.932Z,0.6
2019-05-23T19:06:16.635Z,0.6
2019-05-23T19:08:18.421Z,0.4
2019-05-23T19:10:17.835Z,0.3
2019-05-23T19:12:17.222Z,0.3
2019-05-23T19:14:16.981Z,0.8
2019-05-23T19:16:16.762Z,0.6
2019-05-23T19:18:18.400Z,1.1
2019-05-23T19:20:17.975Z,0.6
2019-05-23T19:22:17.440Z,0.4
2019-05-23T19:24:17.088Z,0.4
2019-05-23T19:26:17.812Z,0.4
2019-05-23T19:28:19.535Z,0.5
2019-05-23T19:30:19.048Z,0.5
2019-05-23T19:32:17.636Z,0.5
2019-05-23T19:34:17.269Z,0.4
2019-05-23T19:36:17.034Z,0.8
2019-05-23T19:38:17.715Z,0.4
2019-05-23T19:40:17.524Z,0.5
2019-05-23T19:42:19.215Z,0.5
2019-05-23T19:44:18.592Z,0.8
2019-05-23T19:46:18.446Z,0.9
2019-05-23T19:48:17.147Z,0.9
2019-05-23T19:50:16.945Z,0.4
2019-05-23T19:52:16.647Z,0.8
2019-05-23T19:54:18.428Z,0.7
2019-05-23T19:56:18.737Z,0.7
2019-05-23T19:58:17.551Z,0.9
2019-05-23T20:00:18.183Z,0.8
2019-05-23T20:02:17.917Z,0.7
2019-05-23T20:04:17.552Z,0.7
2019-05-23T20:06:19.196Z,0.8
2019-05-23T20:08:18.618Z,0.8
2019-05-23T20:10:17.395Z,0.9
2019-05-23T20:12:17.032Z,0.9
2019-05-23T20:14:16.683Z,1.1
2019-05-23T20:16:17.480Z,1.3
2019-05-23T20:18:18.586Z,1.1
2019-05-23T20:20:17.104Z,0.7
2019-05-23T20:22:16.808Z,1
2019-05-23T20:24:16.437Z,0.8
2019-05-23T20:26:18.987Z,0.8
2019-05-23T20:28:18.432Z,1.1
2019-05-23T20:30:18.152Z,1
2019-05-23T20:32:17.979Z,1.1
2019-05-23T20:34:17.714Z,1.2
2019-05-23T20:36:17.475Z,1.2
2019-05-23T20:38:19.202Z,1.1
2019-05-23T20:40:17.740Z,1.3
2019-05-23T20:42:18.380Z,1.2
2019-05-23T20:44:18.050Z,0.9
2019-05-23T20:46:17.695Z,0.8
2019-05-23T20:48:19.458Z,1.5
2019-05-23T20:50:18.968Z,1.5
2019-05-23T20:52:18.423Z,0.9
2019-05-23T20:54:18.080Z,1.5
2019-05-23T20:56:17.791Z,1.1
2019-05-23T20:58:19.363Z,1.8
2019-05-23T21:00:17.908Z,1.3
2019-05-23T21:02:17.409Z,1.6
2019-05-23T21:04:18.127Z,1.1
2019-05-23T21:06:17.846Z,1.2
2019-05-23T21:08:17.531Z,1.3
2019-05-23T21:10:19.096Z,1.1
2019-05-23T21:12:29.182Z,1.4
2019-05-23T21:14:18.257Z,1.5
2019-05-23T21:16:17.869Z,1.2
2019-05-23T21:18:17.618Z,1.8
2019-05-23T21:20:19.450Z,1.3
2019-05-23T21:22:18.943Z,1
2019-05-23T21:24:18.452Z,1.3
2019-05-23T21:26:18.300Z,1.6
2019-05-23T21:28:17.846Z,1.2
2019-05-23T21:30:17.568Z,1.5
2019-05-23T21:32:19.248Z,1.2
2019-05-23T21:34:21.782Z,1.4
2019-05-23T21:36:18.388Z,1.2
2019-05-23T21:38:18.049Z,1
2019-05-23T21:40:17.847Z,1.8
2019-05-23T21:42:17.556Z,1.1
2019-05-23T21:44:19.368Z,1.1
2019-05-23T21:46:18.654Z,1.1
2019-05-23T21:48:18.389Z,1
2019-05-23T21:50:18.094Z,1.4
2019-05-23T21:52:17.818Z,0.9
2019-05-23T21:54:17.439Z,1.8
2019-05-23T21:56:18.916Z,1.7
2019-05-23T21:58:18.379Z,0.9
2019-05-23T22:00:18.133Z,1.6
2019-05-23T22:02:17.810Z,2
2019-05-23T22:04:19.424Z,1.1
2019-05-23T22:06:18.693Z,1.3
2019-05-23T22:08:18.352Z,1.9
2019-05-23T22:10:18.179Z,1.2
2019-05-23T22:12:17.656Z,1.6
2019-05-23T22:14:19.420Z,1.2
2019-05-23T22:16:18.675Z,1.6
2019-05-23T22:18:18.311Z,1.6
2019-05-23T22:20:18.018Z,2
2019-05-23T22:22:17.841Z,1.7
2019-05-23T22:24:19.396Z,1
2019-05-23T22:26:18.693Z,2.2
2019-05-23T22:28:18.274Z,1.2
2019-05-23T22:30:18.123Z,2.1
2019-05-23T22:32:17.901Z,1.4
2019-05-23T22:34:17.577Z,1.4
2019-05-23T22:36:19.127Z,1.4
2019-05-23T22:38:18.563Z,2
2019-05-23T22:40:18.336Z,1.6
2019-05-23T22:42:18.089Z,1.5
2019-05-23T22:44:17.656Z,2
2019-05-23T22:46:17.547Z,1.4
2019-05-23T22:48:19.161Z,1.9
2019-05-23T22:50:18.755Z,1.8
2019-05-23T22:52:18.294Z,2
2019-05-23T22:54:18.100Z,1.5
2019-05-23T22:56:17.839Z,1.6
2019-05-23T22:58:17.466Z,1.6
2019-05-23T23:00:19.290Z,1.5
2019-05-23T23:02:18.715Z,1.8
2019-05-23T23:04:18.295Z,1.8
2019-05-23T23:06:18.028Z,2
2019-05-23T23:08:17.703Z,1.8
2019-05-23T23:10:19.448Z,1.9
2019-05-23T23:12:18.864Z,2
2019-05-23T23:14:18.329Z,1.7
2019-05-23T23:16:18.089Z,2.1
2019-05-23T23:18:17.682Z,1.8
2019-05-23T23:20:19.459Z,1.8
2019-05-23T23:22:18.921Z,2.1
2019-05-23T23:24:18.364Z,2
2019-05-23T23:26:18.222Z,2.2
2019-05-23T23:28:17.873Z,2.5
2019-05-23T23:30:17.732Z,2.2
2019-05-23T23:32:19.446Z,2
2019-05-23T23:34:18.922Z,2
2019-05-23T23:36:18.504Z,3.4
2019-05-23T23:38:18.077Z,2.2
2019-05-23T23:40:17.763Z,2.3
2019-05-23T23:42:19.500Z,2.2
2019-05-23T23:44:18.956Z,2.4
2019-05-23T23:46:18.434Z,2.6
2019-05-23T23:48:18.104Z,1.7
2019-05-23T23:50:17.817Z,1.9
2019-05-23T23:52:17.503Z,1.9
2019-05-23T23:54:19.263Z,2.5
2019-05-23T23:56:18.534Z,2.3
2019-05-23T23:58:18.185Z,2.6
